createdAt,value
2017-09-27T00:02:02.163Z,22.45
2017-09-27T00:05:13.149Z,20.77
2017-09-27T00:08:23.711Z,19.77
2017-09-27T00:11:33.917Z,20.08
2017-09-27T00:14:44.062Z,24.12
2017-09-27T00:17:55.065Z,21.02
2017-09-27T00:21:05.676Z,18.70
2017-09-27T00:24:16.779Z,18.33
2017-09-27T00:27:27.799Z,15.50
2017-09-27T00:30:38.283Z,19.42
2017-09-27T00:33:48.337Z,20.17
2017-09-27T00:36:59.753Z,18.12
2017-09-27T00:40:09.576Z,20.15
2017-09-27T00:43:20.066Z,20.27
2017-09-27T00:46:30.663Z,19.52
2017-09-27T00:49:41.943Z,18.80
2017-09-27T00:52:52.031Z,16.25
2017-09-27T00:56:02.336Z,20.40
2017-09-27T00:59:12.326Z,17.58
2017-09-27T01:02:23.512Z,22.30
2017-09-27T01:05:33.759Z,21.15
2017-09-27T01:08:44.511Z,16.80
2017-09-27T01:11:54.727Z,20.17
2017-09-27T01:15:05.520Z,18.83
2017-09-27T01:18:16.005Z,20.73
2017-09-27T01:21:25.569Z,19.65
2017-09-27T01:24:35.459Z,16.87
2017-09-27T01:27:45.502Z,19.42
2017-09-27T01:30:55.864Z,21.17
2017-09-27T01:34:06.137Z,18.52
2017-09-27T01:37:17.677Z,21.20
2017-09-27T01:40:28.327Z,18.75
2017-09-27T01:43:38.058Z,18.12
2017-09-27T01:46:49.070Z,20.58
2017-09-27T01:50:00.451Z,25.48
2017-09-27T01:53:12.081Z,21.90
2017-09-27T01:56:22.414Z,18.80
2017-09-27T01:59:32.750Z,25.70
2017-09-27T02:02:43.877Z,23.45
2017-09-27T02:05:54.279Z,19.50
2017-09-27T02:09:03.463Z,22.00
2017-09-27T02:12:14.590Z,19.90
2017-09-27T02:15:24.708Z,23.42
2017-09-27T02:18:34.701Z,21.95
2017-09-27T02:21:45.533Z,22.67
2017-09-27T02:24:56.496Z,18.62
2017-09-27T02:28:08.111Z,22.50
2017-09-27T02:31:17.837Z,24.05
2017-09-27T02:34:28.812Z,19.52
2017-09-27T02:37:40.074Z,21.25
2017-09-27T02:40:50.452Z,15.93
2017-09-27T02:44:00.629Z,16.80
2017-09-27T02:47:10.819Z,19.92
2017-09-27T02:50:20.888Z,21.12
2017-09-27T02:53:31.270Z,20.10
2017-09-27T02:56:42.733Z,21.23
2017-09-27T02:59:52.932Z,18.10
2017-09-27T03:03:03.474Z,22.77
2017-09-27T03:06:13.681Z,18.40
2017-09-27T03:09:24.010Z,20.37
2017-09-27T03:12:34.575Z,17.33
2017-09-27T03:15:44.932Z,18.90
2017-09-27T03:18:54.848Z,24.05
2017-09-27T03:22:05.279Z,21.45
2017-09-27T03:25:15.803Z,22.15
2017-09-27T03:28:26.186Z,20.12
2017-09-27T03:31:36.277Z,19.30
2017-09-27T03:34:46.291Z,21.37
2017-09-27T03:37:56.490Z,18.55
2017-09-27T03:41:06.760Z,17.95
2017-09-27T03:44:16.735Z,18.30
2017-09-27T03:47:27.000Z,19.17
2017-09-27T03:50:36.913Z,20.15
2017-09-27T03:53:47.727Z,16.83
2017-09-27T03:56:57.737Z,19.65
2017-09-27T04:00:08.450Z,18.37
2017-09-27T04:03:19.394Z,17.25
2017-09-27T04:06:29.337Z,17.90
2017-09-27T04:09:39.152Z,20.35
2017-09-27T04:12:49.864Z,20.83
2017-09-27T04:16:00.509Z,19.87
2017-09-27T04:19:11.257Z,19.12
2017-09-27T04:22:22.019Z,18.67
2017-09-27T04:25:32.269Z,17.02
2017-09-27T04:28:42.928Z,21.35
2017-09-27T04:31:55.496Z,21.95
2017-09-27T04:35:05.470Z,21.12
2017-09-27T04:38:16.116Z,22.40
2017-09-27T04:41:26.649Z,21.42
2017-09-27T04:44:36.378Z,20.52
2017-09-27T04:47:47.171Z,24.73
2017-09-27T04:50:57.370Z,19.12
2017-09-27T04:54:08.207Z,19.60
2017-09-27T04:57:18.946Z,24.02
2017-09-27T05:00:30.078Z,22.62
2017-09-27T05:03:42.479Z,21.35
2017-09-27T05:06:53.146Z,26.62
2017-09-27T05:10:03.165Z,26.00
2017-09-27T05:13:13.560Z,25.88
2017-09-27T05:16:24.154Z,27.37
2017-09-27T05:19:34.702Z,27.80
2017-09-27T05:22:44.964Z,25.15
2017-09-27T05:25:54.852Z,23.87
2017-09-27T05:29:05.010Z,26.02
2017-09-27T05:32:15.454Z,24.58
2017-09-27T05:35:25.481Z,21.95
2017-09-27T05:38:36.050Z,24.35
2017-09-27T05:41:46.788Z,21.52
2017-09-27T05:44:57.075Z,24.80
2017-09-27T05:48:07.097Z,21.00
2017-09-27T05:51:17.221Z,23.85
2017-09-27T05:54:27.425Z,22.58
2017-09-27T05:57:38.474Z,21.17
2017-09-27T06:00:48.841Z,24.60
2017-09-27T06:03:58.884Z,22.30
2017-09-27T06:07:08.879Z,26.05
2017-09-27T06:10:18.552Z,22.25
2017-09-27T06:13:29.360Z,21.70
2017-09-27T06:16:39.565Z,21.10
2017-09-27T06:19:51.522Z,20.67
2017-09-27T06:23:02.121Z,23.50
2017-09-27T06:26:12.840Z,19.52
2017-09-27T06:29:23.218Z,24.08
2017-09-27T06:32:33.540Z,18.08
2017-09-27T06:35:44.489Z,21.25
2017-09-27T06:38:55.126Z,19.35
2017-09-27T06:42:05.952Z,25.08
2017-09-27T06:45:16.201Z,26.05
2017-09-27T06:48:26.877Z,24.77
2017-09-27T06:51:37.639Z,27.13
2017-09-27T06:54:47.890Z,22.70
2017-09-27T06:57:57.947Z,24.70
2017-09-27T07:01:07.850Z,23.35
2017-09-27T07:04:17.843Z,23.35
2017-09-27T07:07:27.720Z,25.52
2017-09-27T07:10:38.547Z,25.12
2017-09-27T07:13:48.553Z,24.75
2017-09-27T07:16:58.439Z,21.02
2017-09-27T07:20:08.560Z,22.40
2017-09-27T07:23:19.542Z,20.98
2017-09-27T07:26:29.938Z,24.20
2017-09-27T07:29:40.174Z,24.00
2017-09-27T07:32:50.784Z,24.23
2017-09-27T07:36:01.610Z,23.62
2017-09-27T07:39:13.293Z,25.83
2017-09-27T07:42:23.225Z,28.95
2017-09-27T07:45:33.092Z,26.17
2017-09-27T07:48:43.548Z,26.25
2017-09-27T07:51:54.188Z,25.70
2017-09-27T07:55:05.067Z,23.02
2017-09-27T07:58:16.242Z,24.00
2017-09-27T08:01:27.012Z,27.65
2017-09-27T08:04:37.657Z,29.70
2017-09-27T08:07:47.972Z,24.17
2017-09-27T08:10:58.900Z,28.55
2017-09-27T08:14:09.731Z,27.05
2017-09-27T08:17:20.625Z,24.40
2017-09-27T08:20:30.778Z,26.08
2017-09-27T08:23:41.478Z,29.48
2017-09-27T08:26:51.809Z,25.77
2017-09-27T08:30:02.407Z,29.15
2017-09-27T08:33:12.595Z,22.98
2017-09-27T08:36:24.126Z,23.48
2017-09-27T08:39:34.137Z,21.85
2017-09-27T08:42:44.157Z,23.73
2017-09-27T08:45:54.148Z,22.23
2017-09-27T08:49:04.074Z,20.83
2017-09-27T08:52:15.087Z,22.90
2017-09-27T08:55:25.870Z,23.10
2017-09-27T08:58:36.174Z,19.52
2017-09-27T09:01:46.325Z,20.30
2017-09-27T09:04:57.474Z,21.10
2017-09-27T09:08:07.636Z,23.92
2017-09-27T09:11:17.972Z,21.20
2017-09-27T09:14:29.542Z,19.48
2017-09-27T09:17:39.495Z,19.50
2017-09-27T09:20:49.936Z,19.15
2017-09-27T09:24:00.360Z,17.62
2017-09-27T09:27:11.004Z,18.75
2017-09-27T09:30:20.945Z,17.20
2017-09-27T09:33:31.008Z,16.00
2017-09-27T09:36:41.205Z,15.65
2017-09-27T09:39:52.690Z,18.27
2017-09-27T09:43:02.876Z,14.52
2017-09-27T09:46:13.248Z,18.75
2017-09-27T09:49:23.694Z,18.87
2017-09-27T09:52:33.815Z,17.65
2017-09-27T09:55:43.873Z,15.70
2017-09-27T09:58:54.168Z,15.30
2017-09-27T10:02:04.837Z,16.80
2017-09-27T10:05:15.175Z,18.17
2017-09-27T10:08:25.066Z,16.73
2017-09-27T10:11:35.204Z,15.55
2017-09-27T10:14:45.986Z,14.30
2017-09-27T10:17:56.663Z,16.58
2017-09-27T10:21:06.707Z,15.55
2017-09-27T10:24:17.064Z,17.55
2017-09-27T10:27:27.050Z,18.08
2017-09-27T10:30:37.169Z,15.57
2017-09-27T10:33:47.273Z,16.65
2017-09-27T10:36:57.162Z,21.02
2017-09-27T10:40:08.153Z,14.75
2017-09-27T10:43:19.231Z,16.20
2017-09-27T10:46:29.568Z,19.62
2017-09-27T10:49:40.457Z,18.15
2017-09-27T10:52:50.446Z,15.60
2017-09-27T10:56:01.270Z,16.37
2017-09-27T10:59:12.697Z,22.13
2017-09-27T11:02:22.967Z,19.00
2017-09-27T11:05:33.135Z,17.67
2017-09-27T11:08:43.866Z,12.80
2017-09-27T11:11:54.138Z,16.95
2017-09-27T11:15:04.624Z,18.67
2017-09-27T11:18:14.703Z,15.98
2017-09-27T11:21:25.037Z,14.48
2017-09-27T11:24:35.454Z,21.60
2017-09-27T11:27:45.836Z,15.57
2017-09-27T11:30:56.386Z,18.20
2017-09-27T11:34:06.539Z,16.58
2017-09-27T11:37:16.653Z,16.62
2017-09-27T11:40:26.934Z,14.48
2017-09-27T11:43:37.940Z,13.30
2017-09-27T11:46:48.869Z,12.98
2017-09-27T11:49:59.277Z,13.48
2017-09-27T11:53:09.128Z,15.82
2017-09-27T11:56:18.998Z,13.10
2017-09-27T11:59:30.092Z,13.70
2017-09-27T12:02:39.996Z,17.50
2017-09-27T12:05:50.867Z,15.68
2017-09-27T12:09:01.318Z,14.02
2017-09-27T12:12:11.109Z,11.25
2017-09-27T12:15:21.355Z,12.02
2017-09-27T12:18:31.496Z,14.57
2017-09-27T12:21:42.061Z,16.05
2017-09-27T12:24:51.941Z,13.70
2017-09-27T12:28:01.810Z,11.12
2017-09-27T12:31:13.180Z,10.85
2017-09-27T12:34:23.621Z,14.90
2017-09-27T12:37:34.132Z,16.00
2017-09-27T12:40:45.914Z,16.87
2017-09-27T12:43:56.605Z,13.85
2017-09-27T12:47:08.281Z,15.27
2017-09-27T12:50:18.580Z,14.27
2017-09-27T12:53:28.579Z,15.88
2017-09-27T12:56:38.882Z,15.98
2017-09-27T12:59:49.925Z,15.23
2017-09-27T13:03:01.160Z,16.15
2017-09-27T13:06:13.241Z,15.65
2017-09-27T13:09:23.895Z,19.87
2017-09-27T13:12:34.039Z,17.10
2017-09-27T13:15:50.273Z,15.02
2017-09-27T13:19:01.996Z,15.57
2017-09-27T13:22:18.660Z,14.93
2017-09-27T13:25:30.043Z,15.50
2017-09-27T13:28:41.141Z,14.57
2017-09-27T13:31:51.127Z,16.33
2017-09-27T13:35:02.435Z,11.80
2017-09-27T13:38:14.366Z,12.85
2017-09-27T13:41:25.782Z,14.18
2017-09-27T13:44:36.466Z,13.82
2017-09-27T13:47:49.645Z,13.50
2017-09-27T13:51:00.428Z,17.73
2017-09-27T13:54:10.326Z,13.57
2017-09-27T13:57:20.872Z,13.48
2017-09-27T14:00:30.674Z,11.48
2017-09-27T14:03:41.314Z,13.48
2017-09-27T14:06:52.451Z,15.20
2017-09-27T14:10:02.549Z,16.35
2017-09-27T14:13:12.509Z,15.20
2017-09-27T14:16:22.453Z,14.43
2017-09-27T14:19:33.241Z,12.25
2017-09-27T14:22:43.928Z,13.07
2017-09-27T14:25:54.347Z,13.98
2017-09-27T14:29:04.600Z,15.05
2017-09-27T14:32:14.445Z,12.52
2017-09-27T14:35:24.561Z,13.15
2017-09-27T14:38:34.682Z,15.77
2017-09-27T14:41:45.179Z,15.02
2017-09-27T14:44:56.673Z,16.48
2017-09-27T14:48:07.578Z,15.38
2017-09-27T14:51:18.308Z,13.98
2017-09-27T14:54:28.357Z,15.30
2017-09-27T14:57:38.773Z,15.30
2017-09-27T15:00:49.415Z,14.95
2017-09-27T15:03:59.989Z,13.57
2017-09-27T15:07:09.939Z,11.80
2017-09-27T15:10:20.219Z,11.63
2017-09-27T15:13:30.168Z,10.80
2017-09-27T15:16:40.560Z,10.00
2017-09-27T15:19:50.607Z,9.25
2017-09-27T15:23:01.182Z,11.48
2017-09-27T15:26:11.805Z,13.85
2017-09-27T15:29:22.122Z,9.90
2017-09-27T15:32:33.092Z,9.63
2017-09-27T15:35:43.846Z,8.50
2017-09-27T15:38:54.703Z,12.15
2017-09-27T15:42:04.546Z,9.77
2017-09-27T15:45:15.358Z,11.10
2017-09-27T15:48:25.687Z,11.32
2017-09-27T15:51:36.574Z,10.10
2017-09-27T15:54:46.870Z,10.77
2017-09-27T15:57:57.909Z,10.68
2017-09-27T16:01:08.497Z,10.30
2017-09-27T16:04:19.310Z,9.45
2017-09-27T16:07:30.044Z,12.18
2017-09-27T16:10:41.297Z,11.80
2017-09-27T16:13:52.000Z,12.88
2017-09-27T16:17:02.622Z,12.60
2017-09-27T16:20:12.913Z,11.30
2017-09-27T16:23:23.162Z,12.13
2017-09-27T16:26:33.345Z,14.25
2017-09-27T16:29:44.137Z,11.43
2017-09-27T16:32:55.448Z,18.87
2017-09-27T16:36:06.144Z,16.45
2017-09-27T16:39:16.912Z,15.68
2017-09-27T16:42:27.729Z,14.80
2017-09-27T16:45:37.668Z,17.75
2017-09-27T16:48:48.506Z,20.48
2017-09-27T16:51:59.089Z,15.73
2017-09-27T16:55:09.191Z,16.83
2017-09-27T16:58:19.021Z,18.00
2017-09-27T17:01:29.027Z,17.65
2017-09-27T17:04:39.326Z,18.50
2017-09-27T17:07:49.636Z,18.27
2017-09-27T17:10:59.457Z,19.60
2017-09-27T17:14:09.521Z,19.92
2017-09-27T17:17:20.326Z,19.85
2017-09-27T17:20:30.663Z,21.83
2017-09-27T17:23:44.189Z,21.05
2017-09-27T17:26:55.070Z,19.85
2017-09-27T17:30:05.226Z,20.05
2017-09-27T17:33:20.143Z,19.73
2017-09-27T17:36:33.625Z,24.08
2017-09-27T17:39:44.773Z,23.42
2017-09-27T17:42:54.880Z,20.92
2017-09-27T17:46:04.865Z,19.83
2017-09-27T17:49:15.497Z,20.58
2017-09-27T17:52:25.828Z,20.27
2017-09-27T17:55:35.796Z,24.63
2017-09-27T17:58:45.737Z,20.98
2017-09-27T18:01:55.784Z,23.08
2017-09-27T18:08:52.896Z,22.73
2017-09-27T18:12:03.028Z,20.65
2017-09-27T18:18:52.266Z,23.85
2017-09-27T18:22:02.384Z,23.85
2017-09-27T18:25:12.188Z,21.35
2017-09-27T18:28:23.073Z,21.67
2017-09-27T18:31:33.783Z,19.35
2017-09-27T18:34:44.327Z,22.62
2017-09-27T18:37:54.582Z,25.45
2017-09-27T18:41:05.605Z,25.65
2017-09-27T18:44:16.263Z,20.02
2017-09-27T18:47:26.988Z,23.35
2017-09-27T18:50:37.408Z,22.27
2017-09-27T18:53:47.302Z,25.27
2017-09-27T18:56:57.421Z,19.23
2017-09-27T19:00:07.494Z,22.08
2017-09-27T19:03:17.792Z,23.77
2017-09-27T19:06:27.841Z,25.05
2017-09-27T19:09:38.791Z,26.08
2017-09-27T19:12:49.574Z,27.65
2017-09-27T19:15:59.926Z,24.73
2017-09-27T19:19:09.985Z,26.55
2017-09-27T19:22:20.988Z,25.90
2017-09-27T19:25:30.873Z,29.50
2017-09-27T19:28:41.848Z,27.27
2017-09-27T19:31:53.069Z,26.65
2017-09-27T19:35:04.009Z,26.90
2017-09-27T19:38:14.362Z,28.60
2017-09-27T19:41:25.076Z,24.90
2017-09-27T19:44:35.984Z,25.20
2017-09-27T19:47:46.160Z,27.58
2017-09-27T19:50:57.147Z,26.90
2017-09-27T19:54:08.214Z,28.20
2017-09-27T19:57:19.369Z,26.58
2017-09-27T20:00:29.731Z,25.90
2017-09-27T20:03:39.561Z,23.42
2017-09-27T20:06:49.741Z,23.35
2017-09-27T20:10:00.561Z,22.27
2017-09-27T20:13:10.616Z,26.08
2017-09-27T20:16:20.624Z,24.70
2017-09-27T20:19:31.462Z,23.83
2017-09-27T20:22:42.874Z,25.50
2017-09-27T20:25:52.755Z,23.17
2017-09-27T20:29:02.720Z,25.62
2017-09-27T20:32:12.866Z,26.05
2017-09-27T20:35:23.330Z,25.85
2017-09-27T20:38:33.717Z,25.35
2017-09-27T20:41:44.792Z,25.40
2017-09-27T20:44:55.416Z,27.10
2017-09-27T20:48:06.058Z,26.48
2017-09-27T20:51:16.740Z,22.67
2017-09-27T20:54:26.764Z,22.48
2017-09-27T20:57:37.863Z,25.23
2017-09-27T21:00:48.253Z,26.70
2017-09-27T21:04:00.476Z,20.80
2017-09-27T21:07:12.413Z,20.60
2017-09-27T21:10:22.181Z,24.98
2017-09-27T21:13:32.532Z,21.80
2017-09-27T21:16:42.701Z,23.48
2017-09-27T21:19:52.472Z,24.02
2017-09-27T21:23:02.654Z,21.55
2017-09-27T21:26:13.003Z,22.08
2017-09-27T21:29:22.943Z,22.45
2017-09-27T21:32:33.903Z,18.17
2017-09-27T21:35:43.796Z,24.35
2017-09-27T21:38:53.728Z,19.85
2017-09-27T21:42:05.754Z,20.98
2017-09-27T21:45:15.983Z,21.55
2017-09-27T21:48:26.751Z,22.90
2017-09-27T21:51:38.006Z,22.77
2017-09-27T21:54:48.972Z,25.48
2017-09-27T21:57:59.134Z,19.60
2017-09-27T22:01:09.024Z,18.62
2017-09-27T22:04:19.844Z,20.05
2017-09-27T22:07:29.920Z,19.17
2017-09-27T22:10:40.320Z,18.85
2017-09-27T22:13:52.449Z,21.08
2017-09-27T22:17:02.495Z,16.35
2017-09-27T22:20:12.573Z,19.20
2017-09-27T22:23:22.664Z,17.62
2017-09-27T22:26:33.344Z,21.33
2017-09-27T22:29:43.966Z,18.27
2017-09-27T22:32:54.433Z,18.67
2017-09-27T22:36:06.262Z,19.00
2017-09-27T22:39:17.083Z,18.30
2017-09-27T22:42:27.837Z,21.17
2017-09-27T22:45:38.693Z,18.42
2017-09-27T22:48:49.126Z,15.10
2017-09-27T22:52:00.178Z,16.67
2017-09-27T22:55:10.863Z,18.62
2017-09-27T22:58:21.065Z,18.58
2017-09-27T23:01:31.108Z,21.00
2017-09-27T23:04:41.989Z,17.87
2017-09-27T23:07:52.387Z,18.17
2017-09-27T23:11:02.460Z,18.73
2017-09-27T23:14:13.241Z,25.10
2017-09-27T23:17:23.091Z,20.23
2017-09-27T23:20:33.139Z,18.80
2017-09-27T23:23:43.578Z,16.92
2017-09-27T23:26:53.226Z,20.85
2017-09-27T23:30:03.587Z,20.77
2017-09-27T23:33:14.436Z,19.37
2017-09-27T23:36:24.790Z,17.42
2017-09-27T23:39:34.881Z,16.92
2017-09-27T23:42:45.446Z,16.35
2017-09-27T23:45:55.584Z,18.27
2017-09-27T23:49:06.254Z,19.85
2017-09-27T23:52:17.252Z,16.37
2017-09-27T23:55:28.475Z,19.95
2017-09-27T23:58:38.724Z,20.50
